X  Close Metar Aviation Weather Data     KSEA Seattle–Tacoma International Airport
Temperature
37°F Temperature
34°F Dewpoint
87% Humidity



Wind
9 MPH
14 KM/H
4 M/S
8 KTS



200°
SSW
Current Conditions

Light Rain Light Rain
Pressure 1004.4 (hPa) - 29.66 (inHg)
Visibility 10 (mile) - 16.1 (km)
Airport
Airport-code KSEA

Location: Seattle–Tacoma International Airport
Distance: 14 (mi)

Metar:
KSEA 031718Z 20008KT 10SM -RA SCT015 BKN030 OVC037 03/01 A2966 RMK AO2 P0001 T00280006

Time: 03-03-2024 17:18 PST